»·PEaware :: N790DL KOSH-KOSH

N790DL :: KOSH-KOSH

FLIGHT INFORMATION

Flight Status: Arrived
Operator: Privately registered:
United States
More flights under this callsign
Pilot: Keith B. (30325)
Aircraft: BEECH AIRCRAFT DEBONAIR BONANZA
(BE33)
More flights by this aircraft type
Origin: KOSH Wittman Regl
United States
Destination: KOSH Wittman Regl
United States
More flights between these airports :: More routes between these airports
Route: LOCAL
File this flight plan on PilotEdge
Remarks: Airshow
Altitude:
(Current/Filed)
2,500ft
Speed:
(Current/Filed)
150kts
Departed: 14-Jul-21 12:49 PM
Arrived: 14-Jul-21 01:17 PM
Distance/Time
Traveled:
0nm/0:28
Distance/Time
To Go:
Arrived

Flight Plot

Page will automatically refresh every two minutes.

Flight plan parsing failed; only flown route is shown


Map Options




Map Legend


Flown Route
Filed Route
Departure Airport
Arrival Airport
Navaid (VOR, NDB)
Fix

Horizontal Profiles

Position Reports

Time Latitude Longitude Heading Altitude Ground
Speed
14-Jul-21 12:18 43.983737 -88.558577 179 811ft 0kts
14-Jul-21 12:19 43.983737 -88.558577 179 811ft 0kts
14-Jul-21 12:19 43.983737 -88.558577 179 811ft 0kts
14-Jul-21 12:20 43.983737 -88.558577 179 811ft 0kts
14-Jul-21 12:22 43.983737 -88.558577 179 811ft 0kts
14-Jul-21 12:23 43.983737 -88.558577 179 811ft 0kts
14-Jul-21 12:24 43.983737 -88.558577 179 811ft 0kts
14-Jul-21 12:25 43.983737 -88.558577 179 811ft 0kts
14-Jul-21 12:26 43.983737 -88.558577 179 811ft 0kts
14-Jul-21 12:27 43.983737 -88.558577 179 811ft 0kts
14-Jul-21 12:31 43.983737 -88.558577 179 811ft 0kts
14-Jul-21 12:32 43.983737 -88.558577 179 811ft 0kts
14-Jul-21 12:33 43.983737 -88.558577 179 811ft 0kts
14-Jul-21 12:34 43.983737 -88.558577 179 811ft 0kts
14-Jul-21 12:35 43.983737 -88.558577 179 811ft 0kts
14-Jul-21 12:36 43.983737 -88.558577 179 811ft 0kts
14-Jul-21 12:37 43.983737 -88.558577 179 811ft 0kts
14-Jul-21 12:38 43.983737 -88.558577 179 811ft 0kts
14-Jul-21 12:39 43.983737 -88.558577 179 811ft 0kts
14-Jul-21 12:40 43.983737 -88.558577 179 811ft 0kts
14-Jul-21 12:41 43.983656 -88.558472 99 811ft 5kts
14-Jul-21 12:42 43.979763 -88.558035 180 811ft 14kts
14-Jul-21 12:43 43.976040 -88.558088 180 811ft 13kts
14-Jul-21 12:44 43.972154 -88.558119 178 811ft 14kts
14-Jul-21 12:45 43.967994 -88.558195 179 811ft 14kts
14-Jul-21 12:46 43.967537 -88.558119 117 811ft 0kts
14-Jul-21 12:47 43.967487 -88.557471 90 811ft 9kts
14-Jul-21 12:48 43.981162 -88.549213 106 1248ft 103kts
14-Jul-21 12:49 43.950041 -88.516298 145 1338ft 158kts
14-Jul-21 12:50 43.910030 -88.487986 183 1517ft 160kts
14-Jul-21 12:51 43.873203 -88.516687 196 2018ft 151kts
14-Jul-21 12:52 43.837686 -88.546475 216 2478ft 149kts
14-Jul-21 12:53 43.804883 -88.586075 226 2538ft 163kts
14-Jul-21 12:54 43.773458 -88.632506 226 2533ft 166kts
14-Jul-21 12:55 43.741783 -88.679417 226 2528ft 167kts
14-Jul-21 12:56 43.718707 -88.734438 247 2523ft 167kts
14-Jul-21 12:57 43.702290 -88.794546 263 2514ft 167kts
14-Jul-21 12:58 43.710136 -88.857549 282 2500ft 159kts
14-Jul-21 12:59 43.719089 -88.908097 300 2365ft 119kts
14-Jul-21 13:00 43.748382 -88.916543 11 2000ft 115kts
14-Jul-21 13:01 43.779458 -88.907446 11 1776ft 106kts
14-Jul-21 13:02 43.805516 -88.899705 14 1781ft 88kts
14-Jul-21 13:03 43.827540 -88.886125 51 1789ft 98kts
14-Jul-21 13:04 43.839237 -88.853384 65 1790ft 94kts
14-Jul-21 13:05 43.854483 -88.822950 49 1785ft 98kts
14-Jul-21 13:06 43.870791 -88.792785 53 1778ft 90kts
14-Jul-21 13:07 43.886443 -88.764889 45 1787ft 104kts
14-Jul-21 13:08 43.905795 -88.739208 42 1777ft 85kts
14-Jul-21 13:09 43.923839 -88.716020 42 1782ft 87kts
14-Jul-21 13:10 43.944573 -88.692324 38 1773ft 98kts
14-Jul-21 13:11 43.962670 -88.668673 55 1787ft 93kts
14-Jul-21 13:12 43.976444 -88.637439 58 1775ft 95kts
14-Jul-21 13:13 43.989684 -88.606653 60 1778ft 94kts
14-Jul-21 13:14 44.000562 -88.572576 86 1498ft 93kts
14-Jul-21 13:15 43.997606 -88.543966 169 1039ft 66kts
14-Jul-21 13:16 43.992203 -88.558514 312 811ft 15kts
14-Jul-21 13:17 43.992501 -88.563717 270 811ft 10kts
14-Jul-21 13:18 43.992526 -88.566905 270 829ft 8kts
14-Jul-21 13:19 43.992649 -88.571349 268 829ft 11kts
14-Jul-21 13:20 43.991220 -88.574174 141 829ft 13kts
14-Jul-21 13:21 43.990961 -88.569101 90 829ft 14kts
14-Jul-21 13:22 43.990887 -88.565120 89 829ft 0kts
14-Jul-21 13:23 43.990920 -88.562854 88 811ft 11kts
14-Jul-21 13:24 43.990806 -88.559039 119 811ft 18kts
14-Jul-21 13:25 43.987812 -88.556756 224 811ft 14kts
14-Jul-21 13:26 43.985384 -88.558001 215 811ft 10kts
14-Jul-21 13:27 43.984968 -88.558464 185 811ft 0kts
14-Jul-21 13:28 43.984968 -88.558464 185 811ft 0kts
14-Jul-21 13:29 43.984968 -88.558464 185 811ft 0kts
14-Jul-21 13:30 43.984159 -88.557986 179 811ft 10kts

Navigation Log

Ident Type
Flight plan parsing failed, navigation log unavailable